Time;durP1;ratioP1;P1;durP2;ratioP2;P2;SDS_P1;SDS_P2;PMS_P1;PMS_P2;Temp;Humidity;BMP_temperature;BMP_pressure;BME280_temperature;BME280_humidity;BME280_pressure;Samples;Min_cycle;Max_cycle;Signal;HPM_P1;HPM_P2
2021/10/28 00:13:39;;;;;;;44.3;52.7;;;;;;;3.9;78.7;99720;;;;
2021/10/28 00:23:43;;;;;;;44.3;52.7;;;;;;;3.7;79;99730;;;;
2021/10/28 00:33:37;;;;;;;41.6;49;;;;;;;3.6;79.9;99730;;;;
2021/10/28 00:43:37;;;;;;;41.6;49;;;;;;;3.6;80.5;99730;;;;
2021/10/28 00:53:37;;;;;;;41.6;49;;;;;;;3.5;80.4;99730;;;;
2021/10/28 01:04:37;;;;;;;50.1;63.5;;;;;;;3.5;80.7;99730;;;;
2021/10/28 01:14:37;;;;;;;50.1;63.5;;;;;;;3.4;80.6;99740;;;;
2021/10/28 01:24:37;;;;;;;21.9;25.8;;;;;;;3.5;81.7;99740;;;;
2021/10/28 01:34:37;;;;;;;21.9;25.8;;;;;;;3.4;81.5;99730;;;;
2021/10/28 01:44:37;;;;;;;21.9;25.8;;;;;;;3.8;83.1;99730;;;;
2021/10/28 01:54:37;;;;;;;18.6;24.9;;;;;;;3.9;83.1;99720;;;;
2021/10/28 02:04:37;;;;;;;18.6;24.9;;;;;;;3.9;82.9;99720;;;;
2021/10/28 02:14:37;;;;;;;18.6;24.9;;;;;;;4.1;83;99710;;;;
2021/10/28 02:25:37;;;;;;;17.8;20.3;;;;;;;4.1;82.1;99710;;;;
2021/10/28 02:35:37;;;;;;;17.8;20.3;;;;;;;3.9;81;99720;;;;
2021/10/28 02:46:39;;;;;;;17.8;20.3;;;;;;;3.6;80.2;99720;;;;
2021/10/28 02:56:37;;;;;;;23.4;27.6;;;;;;;3.3;80.1;99720;;;;
2021/10/28 03:06:39;;;;;;;23.4;27.6;;;;;;;3.1;80.2;99720;;;;
2021/10/28 03:16:46;;;;;;;23.4;27.6;;;;;;;2.9;79.9;99730;;;;
2021/10/28 03:26:37;;;;;;;38.5;45.3;;;;;;;2.8;81;99730;;;;
2021/10/28 03:36:44;;;;;;;38.5;45.3;;;;;;;2.7;81.1;99740;;;;
2021/10/28 03:47:14;;;;;;;38.5;45.3;;;;;;;2.6;81.8;99750;;;;
2021/10/28 03:57:17;;;;;;;20.4;23.4;;;;;;;2.6;81.9;99750;;;;
2021/10/28 04:06:56;;;;;;;20.4;23.4;;;;;;;2.7;83.1;99750;;;;
2021/10/28 04:36:37;;;;;;;25.2;28.5;;;;;;;2.6;82.3;99770;;;;
2021/10/28 04:46:37;;;;;;;25.2;28.5;;;;;;;2.6;82.3;99770;;;;
2021/10/28 04:56:37;;;;;;;22.8;30;;;;;;;2.5;82.1;99770;;;;
2021/10/28 05:06:37;;;;;;;22.8;30;;;;;;;2.6;82.4;99770;;;;
2021/10/28 05:16:37;;;;;;;22.8;30;;;;;;;2.5;81.9;99780;;;;
2021/10/28 05:26:37;;;;;;;24.1;28.2;;;;;;;2.4;81.5;99780;;;;
2021/10/28 05:36:37;;;;;;;24.1;28.2;;;;;;;2.4;82;99780;;;;
2021/10/28 05:46:37;;;;;;;24.1;28.2;;;;;;;2.4;82;99770;;;;
2021/10/28 05:56:38;;;;;;;29.3;34;;;;;;;2.5;82.1;99790;;;;
2021/10/28 06:06:37;;;;;;;29.3;34;;;;;;;2.6;81.7;99790;;;;
2021/10/28 06:16:41;;;;;;;29.3;34;;;;;;;2.7;81.7;99790;;;;
2021/10/28 06:26:37;;;;;;;22.2;29.6;;;;;;;2.9;81.7;99810;;;;
2021/10/28 06:37:37;;;;;;;22.2;29.6;;;;;;;3.2;82.1;99810;;;;
2021/10/28 06:47:37;;;;;;;22.2;29.6;;;;;;;3.6;82.3;99820;;;;
2021/10/28 06:58:01;;;;;;;55.2;68.4;;;;;;;4;82.5;99810;;;;
2021/10/28 07:07:37;;;;;;;55.2;68.4;;;;;;;4.5;82.7;99820;;;;
2021/10/28 07:17:45;;;;;;;55.2;68.4;;;;;;;5.1;82.2;99820;;;;
2021/10/28 07:27:53;;;;;;;41;51.7;;;;;;;5.7;81.9;99800;;;;
2021/10/28 08:18:00;;;;;;;39.4;46;;;;;;;8.8;76.1;99770;;;;
2021/10/28 08:28:45;;;;;;;31.2;36.2;;;;;;;9.4;75;99770;;;;
2021/10/28 08:37:43;;;;;;;31.2;36.2;;;;;;;9.8;72.4;99760;;;;
2021/10/28 08:47:44;;;;;;;31.2;36.2;;;;;;;10.3;71.6;99750;;;;
2021/10/28 08:58:05;;;;;;;22.8;27.6;;;;;;;10.7;70.1;99740;;;;
2021/10/28 09:27:41;;;;;;;24.1;29;;;;;;;12.1;67;99740;;;;
2021/10/28 09:47:43;;;;;;;24.1;29;;;;;;;12.9;64.7;99720;;;;
2021/10/28 09:57:51;;;;;;;24.8;30.9;;;;;;;13.4;63.6;99710;;;;
2021/10/28 10:07:37;;;;;;;24.8;30.9;;;;;;;13.9;62.5;99700;;;;
2021/10/28 10:17:37;;;;;;;24.8;30.9;;;;;;;14.1;61.2;99690;;;;
2021/10/28 10:28:51;;;;;;;18.5;24.9;;;;;;;14.5;60.1;99680;;;;
2021/10/28 11:28:01;;;;;;;11.1;14.4;;;;;;;16.4;49.6;99640;;;;
2021/10/28 12:48:59;;;;;;;8.9;12.2;;;;;;;17.2;47.7;99560;;;;
2021/10/28 13:48:03;;;;;;;12.3;17.4;;;;;;;16.8;49;99530;;;;
2021/10/28 13:49:54;;;;;;;12.3;17.4;;;;;;;16.7;49.7;99520;;;;
2021/10/28 14:14:31;;;;;;;11.1;15.9;;;;;;;16.6;50;99520;;;;
2021/10/28 14:20:52;;;;;;;11.1;15.9;;;;;;;16.1;52;99520;;;;
2021/10/28 14:31:11;;;;;;;9.9;13.5;;;;;;;15.7;53.1;99520;;;;
2021/10/28 15:01:43;;;;;;;9.7;14.9;;;;;;;14.2;56.7;99520;;;;
2021/10/28 15:31:10;;;;;;;9.4;13.6;;;;;;;12.6;60;99520;;;;
2021/10/28 15:40:49;;;;;;;9.4;13.6;;;;;;;12.2;62.1;99510;;;;
2021/10/28 15:51:11;;;;;;;9.4;13.6;;;;;;;11.7;63.5;99510;;;;
2021/10/28 16:00:54;;;;;;;17.3;23.8;;;;;;;11.4;64.5;99510;;;;
2021/10/28 16:22:38;;;;;;;11.2;16.2;;;;;;;10.9;65.5;99510;;;;
2021/10/28 16:32:37;;;;;;;11.2;16.2;;;;;;;10.6;66;99500;;;;
2021/10/28 16:42:37;;;;;;;11.2;16.2;;;;;;;10.3;66.6;99500;;;;
2021/10/28 16:52:37;;;;;;;18.3;21.6;;;;;;;9.8;67.9;99500;;;;
2021/10/28 17:02:37;;;;;;;18.3;21.6;;;;;;;9.5;68.9;99500;;;;
2021/10/28 17:12:39;;;;;;;18.3;21.6;;;;;;;9;69.2;99500;;;;
2021/10/28 17:22:38;;;;;;;28.9;36.8;;;;;;;8.7;70.3;99490;;;;
2021/10/28 17:32:40;;;;;;;28.9;36.8;;;;;;;8.5;71.7;99500;;;;
2021/10/28 17:42:39;;;;;;;28.9;36.8;;;;;;;8.3;73;99500;;;;
2021/10/28 17:52:37;;;;;;;45;59.4;;;;;;;8.2;72.5;99490;;;;
2021/10/28 18:02:37;;;;;;;45;59.4;;;;;;;8.2;73.7;99490;;;;
2021/10/28 18:12:38;;;;;;;45;59.4;;;;;;;7.9;73.2;99490;;;;
2021/10/28 18:22:39;;;;;;;52.6;62.4;;;;;;;7.7;74.4;99480;;;;
2021/10/28 18:32:37;;;;;;;52.6;62.4;;;;;;;7.6;75.7;99480;;;;
2021/10/28 18:42:37;;;;;;;52.6;62.4;;;;;;;7.3;74.8;99460;;;;
2021/10/28 18:52:37;;;;;;;58.4;70.4;;;;;;;7.1;75.6;99450;;;;
2021/10/28 19:02:37;;;;;;;58.4;70.4;;;;;;;6.9;76.4;99450;;;;
2021/10/28 19:12:38;;;;;;;58.4;70.4;;;;;;;6.8;76.8;99450;;;;
2021/10/28 19:23:38;;;;;;;63;72.9;;;;;;;6.6;77.3;99450;;;;
2021/10/28 19:33:42;;;;;;;63;72.9;;;;;;;6.4;78;99440;;;;
2021/10/28 19:53:38;;;;;;;70.3;85.3;;;;;;;6.1;78.6;99440;;;;
2021/10/28 20:03:47;;;;;;;70.3;85.3;;;;;;;5.9;78.4;99430;;;;
2021/10/28 20:14:39;;;;;;;70.3;85.3;;;;;;;5.8;78.5;99430;;;;
2021/10/28 20:23:37;;;;;;;56.4;69.7;;;;;;;5.6;79;99430;;;;
2021/10/28 20:33:43;;;;;;;56.4;69.7;;;;;;;5.6;79.8;99430;;;;
2021/10/28 20:43:38;;;;;;;56.4;69.7;;;;;;;5.6;80.9;99440;;;;
2021/10/28 20:53:38;;;;;;;60.9;71.4;;;;;;;5.5;80.7;99430;;;;
2021/10/28 21:03:37;;;;;;;60.9;71.4;;;;;;;5.6;81.6;99430;;;;
2021/10/28 21:13:37;;;;;;;60.9;71.4;;;;;;;5.4;80.8;99410;;;;
2021/10/28 21:23:37;;;;;;;61;68.3;;;;;;;5.2;80.3;99420;;;;
2021/10/28 21:33:37;;;;;;;61;68.3;;;;;;;5.1;80.9;99400;;;;
2021/10/28 21:43:38;;;;;;;61;68.3;;;;;;;5;82.1;99400;;;;
2021/10/28 21:53:40;;;;;;;58.2;70.1;;;;;;;5.1;82.8;99400;;;;
2021/10/28 22:04:53;;;;;;;58.2;70.1;;;;;;;5.1;82.9;99390;;;;
2021/10/28 22:24:47;;;;;;;58.3;69.5;;;;;;;4.8;82.7;99370;;;;
2021/10/28 22:33:40;;;;;;;58.3;69.5;;;;;;;4.9;82.9;99370;;;;
2021/10/28 22:43:37;;;;;;;58.3;69.5;;;;;;;4.8;83.1;99370;;;;
2021/10/28 22:53:38;;;;;;;48.7;58.3;;;;;;;4.8;82.8;99360;;;;
2021/10/28 23:03:59;;;;;;;48.7;58.3;;;;;;;4.6;82.4;99360;;;;
2021/10/28 23:13:59;;;;;;;48.7;58.3;;;;;;;4.6;82.7;99350;;;;
2021/10/28 23:23:38;;;;;;;48.8;57.3;;;;;;;4.4;82.3;99350;;;;
2021/10/28 23:33:38;;;;;;;48.8;57.3;;;;;;;4.4;82.5;99350;;;;
2021/10/28 23:43:38;;;;;;;48.8;57.3;;;;;;;4.3;82.6;99340;;;;
2021/10/28 23:53:37;;;;;;;51.2;61.1;;;;;;;4.1;82.6;99340;;;;
